Time;durP1;ratioP1;P1;durP2;ratioP2;P2;SDS_P1;SDS_P2;PMS_P1;PMS_P2;Temp;Humidity;BMP_temperature;BMP_pressure;BME280_temperature;BME280_humidity;BME280_pressure;Samples;Min_cycle;Max_cycle;Signal;HPM_P1;HPM_P2
2023/03/29 00:01:24;;;;;;;;;;;;;;;;;;5035201;28;19952;-68
2023/03/29 00:03:50;;;;;;;;;;;;;;;;;;5035177;28;20005;-67
2023/03/29 00:06:21;;;;;;;;;;;;;;;;;;5035595;28;20008;-67
2023/03/29 00:08:49;;;;;;;;;;;;;;;;;;5035038;28;19953;-67
2023/03/29 00:11:15;;;;;;;;;;;;;;;;;;5034984;28;20370;-67
2023/03/29 00:13:41;;;;;;;;;;;;;;;;;;5036009;28;20038;-68
2023/03/29 00:16:07;;;;;;;;;;;;;;;;;;5035190;28;19951;-67
2023/03/29 00:18:33;;;;;;;;;;;;;;;;;;5034835;28;19950;-67
2023/03/29 00:20:59;;;;;;;;;;;;;;;;;;5033931;28;19990;-68
2023/03/29 00:23:25;;;;;;;;;;;;;;;;;;5035041;28;19948;-68
2023/03/29 00:25:51;;;;;;;;;;;;;;;;;;5034634;28;19976;-67
2023/03/29 00:28:17;;;;;;;;;;;;;;;;;;5035200;28;20407;-68
2023/03/29 00:30:43;;;;;;;;;;;;;;;;;;5034553;28;19966;-68
2023/03/29 00:33:10;;;;;;;;;;;;;;;;;;5034579;28;19950;-67
2023/03/29 00:35:36;;;;;;;;;;;;;;;;;;5034809;28;19945;-67
2023/03/29 00:38:04;;;;;;;;;;;;;;;;;;5034778;28;19956;-67
2023/03/29 00:40:30;;;;;;;;;;;;;;;;;;5033217;28;20041;-67
2023/03/29 00:42:57;;;;;;;;;;;;;;;;;;5034674;28;19979;-67
2023/03/29 00:45:24;;;;;;;;;;;;;;;;;;5034307;28;20424;-68
2023/03/29 00:47:49;;;;;;;;;;;;;;;;;;5034869;28;19948;-67
2023/03/29 00:50:15;;;;;;;;;;;;;;;;;;5034252;28;20426;-68
2023/03/29 00:52:41;;;;;;;;;;;;;;;;;;5034790;28;19958;-68
2023/03/29 00:55:08;;;;;;;;;;;;;;;;;;5034170;28;20417;-67
2023/03/29 00:57:36;;;;;;;;;;;;;;;;;;5032914;28;19985;-67
2023/03/29 01:00:03;;;;;;;;;;;;;;;;;;5034389;28;20039;-67
2023/03/29 01:02:33;;;;;;;;;;;;;;;;;;5034068;28;19985;-67
2023/03/29 01:05:00;;;;;;;;;;;;;;;;;;5034246;28;19964;-68
2023/03/29 01:07:27;;;;;;;;;;;;;;;;;;5032500;28;19954;-67
2023/03/29 01:09:53;;;;;;;;;;;;;;;;;;5034224;28;19947;-68
2023/03/29 01:12:19;;;;;;;;;;;;;;;;;;5033917;28;19955;-67
2023/03/29 01:14:45;;;;;;;;;;;;;;;;;;5034150;28;20391;-67
2023/03/29 01:17:11;;;;;;;;;;;;;;;;;;5034230;28;19996;-68
2023/03/29 01:19:37;;;;;;;;;;;;;;;;;;5033826;28;19953;-68
2023/03/29 01:22:03;;;;;;;;;;;;;;;;;;5033429;28;20002;-67
2023/03/29 01:24:29;;;;;;;;;;;;;;;;;;5033687;28;19951;-68
2023/03/29 01:26:55;;;;;;;;;;;;;;;;;;5034015;28;19963;-68
2023/03/29 01:29:21;;;;;;;;;;;;;;;;;;5033807;28;20339;-68
2023/03/29 01:31:47;;;;;;;;;;;;;;;;;;5033651;28;20026;-67
2023/03/29 01:34:13;;;;;;;;;;;;;;;;;;5033952;28;19950;-67
2023/03/29 01:36:39;;;;;;;;;;;;;;;;;;5033654;28;20466;-66
2023/03/29 01:39:05;;;;;;;;;;;;;;;;;;5034201;28;20331;-67
2023/03/29 01:41:31;;;;;;;;;;;;;;;;;;5033584;28;19952;-67
2023/03/29 01:43:57;;;;;;;;;;;;;;;;;;5033589;28;19960;-67
2023/03/29 01:46:23;;;;;;;;;;;;;;;;;;5033745;28;20013;-67
2023/03/29 01:48:49;;;;;;;;;;;;;;;;;;5033532;28;19951;-67
2023/03/29 01:51:15;;;;;;;;;;;;;;;;;;5033542;28;19955;-67
2023/03/29 01:53:41;;;;;;;;;;;;;;;;;;5033811;28;19951;-67
2023/03/29 01:56:07;;;;;;;;;;;;;;;;;;5033461;28;20431;-67
2023/03/29 01:58:33;;;;;;;;;;;;;;;;;;5033458;28;19945;-67
2023/03/29 02:00:59;;;;;;;;;;;;;;;;;;5033432;28;19946;-67
2023/03/29 02:03:26;;;;;;;;;;;;;;;;;;5033685;28;19955;-68
2023/03/29 02:05:52;;;;;;;;;;;;;;;;;;5033402;28;20475;-67
2023/03/29 02:08:18;;;;;;;;;;;;;;;;;;5033934;28;19952;-68
2023/03/29 02:10:44;;;;;;;;;;;;;;;;;;5033627;28;20129;-67
2023/03/29 02:13:10;;;;;;;;;;;;;;;;;;5033328;28;19952;-67
2023/03/29 02:15:36;;;;;;;;;;;;;;;;;;5033856;28;20404;-68
2023/03/29 02:18:02;;;;;;;;;;;;;;;;;;5033278;28;19952;-67
2023/03/29 02:20:28;;;;;;;;;;;;;;;;;;5033038;28;20036;-67
2023/03/29 02:22:54;;;;;;;;;;;;;;;;;;5033531;28;19951;-68
2023/03/29 02:25:21;;;;;;;;;;;;;;;;;;5033136;28;19971;-68
2023/03/29 02:27:47;;;;;;;;;;;;;;;;;;5033774;28;19949;-67
2023/03/29 02:30:13;;;;;;;;;;;;;;;;;;5033072;28;19969;-68
2023/03/29 02:32:39;;;;;;;;;;;;;;;;;;5033132;28;19965;-67
2023/03/29 02:35:05;;;;;;;;;;;;;;;;;;5033379;28;19955;-67
2023/03/29 02:37:31;;;;;;;;;;;;;;;;;;5033143;28;20005;-67
2023/03/29 02:39:57;;;;;;;;;;;;;;;;;;5033104;28;19953;-67
2023/03/29 02:42:23;;;;;;;;;;;;;;;;;;5033830;28;20423;-67
2023/03/29 02:44:50;;;;;;;;;;;;;;;;;;5036565;28;19978;-67
2023/03/29 02:47:16;;;;;;;;;;;;;;;;;;5037222;28;20004;-68
2023/03/29 02:49:42;;;;;;;;;;;;;;;;;;5036537;28;19953;-68
2023/03/29 02:52:08;;;;;;;;;;;;;;;;;;5036745;28;19947;-68
2023/03/29 02:54:36;;;;;;;;;;;;;;;;;;5036429;28;19951;-67
2023/03/29 02:57:02;;;;;;;;;;;;;;;;;;5036713;28;20308;-67
2023/03/29 02:59:28;;;;;;;;;;;;;;;;;;5036921;28;19950;-68
2023/03/29 03:01:54;;;;;;;;;;;;;;;;;;5036343;28;19947;-67
2023/03/29 03:04:20;;;;;;;;;;;;;;;;;;5036275;28;20352;-67
2023/03/29 03:06:46;;;;;;;;;;;;;;;;;;5036723;28;20432;-67
2023/03/29 03:09:12;;;;;;;;;;;;;;;;;;5036465;28;20091;-67
2023/03/29 03:11:38;;;;;;;;;;;;;;;;;;5036449;28;19943;-68
2023/03/29 03:14:05;;;;;;;;;;;;;;;;;;5036080;28;19949;-67
2023/03/29 03:16:31;;;;;;;;;;;;;;;;;;5034809;28;20036;-68
2023/03/29 03:18:57;;;;;;;;;;;;;;;;;;5036037;28;20010;-67
2023/03/29 03:21:24;;;;;;;;;;;;;;;;;;5035951;28;20072;-67
2023/03/29 03:23:50;;;;;;;;;;;;;;;;;;5036240;28;19951;-68
2023/03/29 03:26:17;;;;;;;;;;;;;;;;;;5035857;28;19972;-67
2023/03/29 03:28:42;;;;;;;;;;;;;;;;;;5036037;28;20346;-68
2023/03/29 03:31:08;;;;;;;;;;;;;;;;;;5035807;28;19956;-68
2023/03/29 03:33:34;;;;;;;;;;;;;;;;;;5035772;28;19951;-67
2023/03/29 03:36:05;;;;;;;;;;;;;;;;;;5035743;28;20414;-68
2023/03/29 03:38:30;;;;;;;;;;;;;;;;;;5035985;28;20347;-67
2023/03/29 03:40:57;;;;;;;;;;;;;;;;;;5035661;28;19976;-68
2023/03/29 03:43:22;;;;;;;;;;;;;;;;;;5035845;28;19943;-68
2023/03/29 03:45:48;;;;;;;;;;;;;;;;;;5035464;28;19997;-68
2023/03/29 03:48:14;;;;;;;;;;;;;;;;;;5035512;28;20323;-67
2023/03/29 03:50:40;;;;;;;;;;;;;;;;;;5035971;28;20402;-68
2023/03/29 03:53:06;;;;;;;;;;;;;;;;;;5035681;28;19952;-68
2023/03/29 03:55:32;;;;;;;;;;;;;;;;;;5034285;28;20036;-67
2023/03/29 03:57:58;;;;;;;;;;;;;;;;;;5035289;28;20421;-68
2023/03/29 04:00:24;;;;;;;;;;;;;;;;;;5035249;28;20463;-67
2023/03/29 04:02:50;;;;;;;;;;;;;;;;;;5035155;28;20039;-67
2023/03/29 04:05:16;;;;;;;;;;;;;;;;;;5035332;28;20000;-67
2023/03/29 04:07:42;;;;;;;;;;;;;;;;;;5035129;28;20092;-67
2023/03/29 04:10:08;;;;;;;;;;;;;;;;;;5034971;28;20073;-67
2023/03/29 04:12:34;;;;;;;;;;;;;;;;;;5035571;28;19956;-67
2023/03/29 04:15:00;;;;;;;;;;;;;;;;;;5034952;28;19944;-68
2023/03/29 04:17:26;;;;;;;;;;;;;;;;;;5035154;28;20038;-68
2023/03/29 04:19:52;;;;;;;;;;;;;;;;;;5034716;28;19986;-67
2023/03/29 04:22:18;;;;;;;;;;;;;;;;;;5035363;28;20357;-68
2023/03/29 04:24:44;;;;;;;;;;;;;;;;;;5034742;28;19954;-67
2023/03/29 04:27:10;;;;;;;;;;;;;;;;;;5035007;28;20322;-67
2023/03/29 04:29:36;;;;;;;;;;;;;;;;;;5034631;28;19977;-68
2023/03/29 04:32:02;;;;;;;;;;;;;;;;;;5034935;28;20379;-67
2023/03/29 04:34:28;;;;;;;;;;;;;;;;;;5034554;28;19997;-67
2023/03/29 04:36:55;;;;;;;;;;;;;;;;;;5034549;28;20038;-67
2023/03/29 04:39:21;;;;;;;;;;;;;;;;;;5034436;28;19951;-68
2023/03/29 04:41:47;;;;;;;;;;;;;;;;;;5034756;28;20358;-67
2023/03/29 04:44:13;;;;;;;;;;;;;;;;;;5034401;28;19952;-68
2023/03/29 04:46:39;;;;;;;;;;;;;;;;;;5034282;28;20343;-67
2023/03/29 04:49:05;;;;;;;;;;;;;;;;;;5034592;28;19974;-67
2023/03/29 04:51:31;;;;;;;;;;;;;;;;;;5034280;28;20043;-67
2023/03/29 04:53:56;;;;;;;;;;;;;;;;;;5034241;28;20361;-68
2023/03/29 04:56:22;;;;;;;;;;;;;;;;;;5034184;28;19948;-68
2023/03/29 04:58:48;;;;;;;;;;;;;;;;;;5034441;28;20000;-68
2023/03/29 05:01:14;;;;;;;;;;;;;;;;;;5034438;28;19952;-68
2023/03/29 05:03:40;;;;;;;;;;;;;;;;;;5034116;28;19954;-67
2023/03/29 05:06:06;;;;;;;;;;;;;;;;;;5033966;28;20439;-67
2023/03/29 05:08:33;;;;;;;;;;;;;;;;;;5034873;28;19982;-67
2023/03/29 05:10:59;;;;;;;;;;;;;;;;;;5033975;28;19949;-67
2023/03/29 05:13:25;;;;;;;;;;;;;;;;;;5034196;28;20433;-67
2023/03/29 05:15:51;;;;;;;;;;;;;;;;;;5034503;28;20040;-67
2023/03/29 05:18:17;;;;;;;;;;;;;;;;;;5033916;28;19951;-67
2023/03/29 05:20:44;;;;;;;;;;;;;;;;;;5034019;28;20019;-68
2023/03/29 05:23:11;;;;;;;;;;;;;;;;;;5032572;28;20381;-67
2023/03/29 05:25:37;;;;;;;;;;;;;;;;;;5034302;28;19984;-67
2023/03/29 05:28:03;;;;;;;;;;;;;;;;;;5034036;28;19955;-68
2023/03/29 05:30:29;;;;;;;;;;;;;;;;;;5033672;28;19967;-67
2023/03/29 05:32:55;;;;;;;;;;;;;;;;;;5033726;28;20512;-68
2023/03/29 05:35:23;;;;;;;;;;;;;;;;;;5033683;28;19951;-68
2023/03/29 05:37:50;;;;;;;;;;;;;;;;;;5033967;28;19998;-68
2023/03/29 05:40:16;;;;;;;;;;;;;;;;;;5033945;28;19981;-68
2023/03/29 05:42:42;;;;;;;;;;;;;;;;;;5033590;28;19942;-67
2023/03/29 05:45:10;;;;;;;;;;;;;;;;;;5033738;28;19972;-68
2023/03/29 05:47:36;;;;;;;;;;;;;;;;;;5033644;28;20040;-68
2023/03/29 05:50:02;;;;;;;;;;;;;;;;;;5034141;28;20379;-68
2023/03/29 05:52:27;;;;;;;;;;;;;;;;;;5033789;28;19943;-67
2023/03/29 05:54:53;;;;;;;;;;;;;;;;;;5034106;28;19957;-67
2023/03/29 05:57:19;;;;;;;;;;;;;;;;;;5033773;28;19991;-67
2023/03/29 05:59:45;;;;;;;;;;;;;;;;;;5033714;28;19952;-67
2023/03/29 06:02:11;;;;;;;;;;;;;;;;;;5034020;28;19979;-67
2023/03/29 06:04:38;;;;;;;;;;;;;;;;;;5033324;28;19951;-67
2023/03/29 06:07:04;;;;;;;;;;;;;;;;;;5033949;28;19999;-67
2023/03/29 06:09:30;;;;;;;;;;;;;;;;;;5033384;28;19948;-68
2023/03/29 06:11:57;;;;;;;;;;;;;;;;;;5033357;28;20051;-68
2023/03/29 06:14:23;;;;;;;;;;;;;;;;;;5032926;28;19952;-68
2023/03/29 06:16:49;;;;;;;;;;;;;;;;;;5033587;28;20322;-67
2023/03/29 06:19:16;;;;;;;;;;;;;;;;;;5036450;28;19954;-67
2023/03/29 06:21:42;;;;;;;;;;;;;;;;;;5036831;28;20023;-68
2023/03/29 06:24:07;;;;;;;;;;;;;;;;;;5037350;28;19944;-68
2023/03/29 06:26:34;;;;;;;;;;;;;;;;;;5036948;28;20348;-68
2023/03/29 06:29:00;;;;;;;;;;;;;;;;;;5037200;28;20017;-67
2023/03/29 06:31:26;;;;;;;;;;;;;;;;;;5036928;28;20364;-67
2023/03/29 06:33:52;;;;;;;;;;;;;;;;;;5037384;28;20409;-67
2023/03/29 06:36:19;;;;;;;;;;;;;;;;;;5036820;28;19954;-68
2023/03/29 06:38:44;;;;;;;;;;;;;;;;;;5037040;28;20000;-68
2023/03/29 06:41:10;;;;;;;;;;;;;;;;;;5036745;28;19995;-68
2023/03/29 06:43:36;;;;;;;;;;;;;;;;;;5036678;28;19955;-67
2023/03/29 06:46:02;;;;;;;;;;;;;;;;;;5037102;28;20081;-68
2023/03/29 06:48:28;;;;;;;;;;;;;;;;;;5036587;28;19952;-67
2023/03/29 06:50:55;;;;;;;;;;;;;;;;;;5036548;28;20366;-68
2023/03/29 06:53:21;;;;;;;;;;;;;;;;;;5036532;28;19960;-68
2023/03/29 06:55:47;;;;;;;;;;;;;;;;;;5036484;28;19953;-68
2023/03/29 06:58:14;;;;;;;;;;;;;;;;;;5036417;28;19951;-68
2023/03/29 07:00:41;;;;;;;;;;;;;;;;;;5036351;28;19952;-67
2023/03/29 07:03:08;;;;;;;;;;;;;;;;;;5036870;28;20010;-68
2023/03/29 07:05:39;;;;;;;;;;;;;;;;;;5036155;28;20453;-67
2023/03/29 07:10:31;;;;;;;;;;;;;;;;;;5036536;28;20020;-67
2023/03/29 07:12:58;;;;;;;;;;;;;;;;;;5036163;28;19953;-68
2023/03/29 07:15:26;;;;;;;;;;;;;;;;;;5036411;28;20321;-67
2023/03/29 07:17:52;;;;;;;;;;;;;;;;;;5036398;28;19952;-67
2023/03/29 07:20:18;;;;;;;;;;;;;;;;;;5036228;28;20039;-67
2023/03/29 07:22:44;;;;;;;;;;;;;;;;;;5035984;28;19970;-68
2023/03/29 07:25:11;;;;;;;;;;;;;;;;;;5034534;28;19988;-67
2023/03/29 07:27:37;;;;;;;;;;;;;;;;;;5036146;28;20302;-67
2023/03/29 07:30:05;;;;;;;;;;;;;;;;;;5035583;28;19971;-68
2023/03/29 07:32:31;;;;;;;;;;;;;;;;;;5035800;28;19957;-68
2023/03/29 07:34:57;;;;;;;;;;;;;;;;;;5036334;28;19985;-68
2023/03/29 07:37:23;;;;;;;;;;;;;;;;;;5035919;28;20317;-68
2023/03/29 07:39:50;;;;;;;;;;;;;;;;;;5035582;28;19989;-68
2023/03/29 07:42:16;;;;;;;;;;;;;;;;;;5035888;28;19996;-69
2023/03/29 07:44:42;;;;;;;;;;;;;;;;;;5036372;28;20319;-68
2023/03/29 07:47:08;;;;;;;;;;;;;;;;;;5035516;28;19952;-68
2023/03/29 07:49:34;;;;;;;;;;;;;;;;;;5035476;28;19976;-65
2023/03/29 07:52:00;;;;;;;;;;;;;;;;;;5035941;28;20070;-70
2023/03/29 07:54:26;;;;;;;;;;;;;;;;;;5035657;28;19984;-70
2023/03/29 07:56:52;;;;;;;;;;;;;;;;;;5035581;28;19963;-69
2023/03/29 07:59:18;;;;;;;;;;;;;;;;;;5036103;28;19952;-68
2023/03/29 08:01:44;;;;;;;;;;;;;;;;;;5035497;28;19952;-71
2023/03/29 08:04:10;;;;;;;;;;;;;;;;;;5035184;28;20035;-70
2023/03/29 08:06:37;;;;;;;;;;;;;;;;;;5035053;28;20055;-69
2023/03/29 08:09:03;;;;;;;;;;;;;;;;;;5035080;28;20115;-71
2023/03/29 08:11:29;;;;;;;;;;;;;;;;;;5035007;28;20042;-69
2023/03/29 08:13:55;;;;;;;;;;;;;;;;;;5035516;28;20479;-69
2023/03/29 08:16:21;;;;;;;;;;;;;;;;;;5035182;28;19946;-69
2023/03/29 08:18:47;;;;;;;;;;;;;;;;;;5034893;28;20404;-69
2023/03/29 08:21:13;;;;;;;;;;;;;;;;;;5034635;28;19986;-71
2023/03/29 08:23:40;;;;;;;;;;;;;;;;;;5035361;28;19953;-69
2023/03/29 08:26:07;;;;;;;;;;;;;;;;;;5034976;28;20340;-69
2023/03/29 08:28:33;;;;;;;;;;;;;;;;;;5034927;28;19956;-70
2023/03/29 08:30:59;;;;;;;;;;;;;;;;;;5034674;28;19984;-70
2023/03/29 08:33:25;;;;;;;;;;;;;;;;;;5034627;28;19955;-70
2023/03/29 08:35:51;;;;;;;;;;;;;;;;;;5034565;28;19948;-71
2023/03/29 08:38:17;;;;;;;;;;;;;;;;;;5034832;28;19954;-69
2023/03/29 08:40:43;;;;;;;;;;;;;;;;;;5033933;28;19987;-69
2023/03/29 08:43:09;;;;;;;;;;;;;;;;;;5034750;28;19996;-69
2023/03/29 08:45:35;;;;;;;;;;;;;;;;;;5034326;28;20423;-69
2023/03/29 08:48:01;;;;;;;;;;;;;;;;;;5034339;28;20405;-69
2023/03/29 08:50:27;;;;;;;;;;;;;;;;;;5035399;28;19954;-70
2023/03/29 08:52:53;;;;;;;;;;;;;;;;;;5034289;28;19952;-71
2023/03/29 08:55:19;;;;;;;;;;;;;;;;;;5034544;28;19993;-70
2023/03/29 08:57:45;;;;;;;;;;;;;;;;;;5034214;28;20552;-69
2023/03/29 09:00:12;;;;;;;;;;;;;;;;;;5034201;28;19951;-70
2023/03/29 09:02:38;;;;;;;;;;;;;;;;;;5034471;28;19947;-71
2023/03/29 09:05:04;;;;;;;;;;;;;;;;;;5034003;28;20412;-69
2023/03/29 09:07:30;;;;;;;;;;;;;;;;;;5034304;28;19952;-70
2023/03/29 09:09:56;;;;;;;;;;;;;;;;;;5033969;28;19951;-71
2023/03/29 09:12:22;;;;;;;;;;;;;;;;;;5033861;28;19952;-70
2023/03/29 09:14:48;;;;;;;;;;;;;;;;;;5034221;28;20015;-69
2023/03/29 09:17:14;;;;;;;;;;;;;;;;;;5033899;28;19952;-70
2023/03/29 09:19:40;;;;;;;;;;;;;;;;;;5034145;28;20039;-69
2023/03/29 09:22:07;;;;;;;;;;;;;;;;;;5034203;28;19987;-68
2023/03/29 09:24:33;;;;;;;;;;;;;;;;;;5033827;28;19946;-69
2023/03/29 09:26:59;;;;;;;;;;;;;;;;;;5034000;28;20066;-70
2023/03/29 09:29:25;;;;;;;;;;;;;;;;;;5034001;28;20557;-70
2023/03/29 09:31:50;;;;;;;;;;;;;;;;;;5034007;28;20048;-68
2023/03/29 09:34:16;;;;;;;;;;;;;;;;;;5033688;28;19958;-70
2023/03/29 09:36:42;;;;;;;;;;;;;;;;;;5034002;28;19956;-69
2023/03/29 09:39:08;;;;;;;;;;;;;;;;;;5033695;28;19952;-69
2023/03/29 09:41:34;;;;;;;;;;;;;;;;;;5034192;28;20401;-69
2023/03/29 09:44:00;;;;;;;;;;;;;;;;;;5033901;28;19958;-70
2023/03/29 09:46:27;;;;;;;;;;;;;;;;;;5033504;28;20415;-68
2023/03/29 09:48:53;;;;;;;;;;;;;;;;;;5033836;28;19951;-68
2023/03/29 09:51:19;;;;;;;;;;;;;;;;;;5033532;28;20374;-70
2023/03/29 09:53:46;;;;;;;;;;;;;;;;;;5036001;28;19960;-69
2023/03/29 09:56:14;;;;;;;;;;;;;;;;;;5036305;28;19954;-68
2023/03/29 09:58:40;;;;;;;;;;;;;;;;;;5036255;28;20048;-69
2023/03/29 10:01:09;;;;;;;;;;;;;;;;;;5037544;28;20052;-69
2023/03/29 10:03:35;;;;;;;;;;;;;;;;;;5037438;28;19956;-70
2023/03/29 10:06:01;;;;;;;;;;;;;;;;;;5037332;28;20436;-68
2023/03/29 10:08:27;;;;;;;;;;;;;;;;;;5037906;28;20414;-69
2023/03/29 10:10:53;;;;;;;;;;;;;;;;;;5037324;28;19960;-70
2023/03/29 10:13:20;;;;;;;;;;;;;;;;;;5037523;28;19957;-69
2023/03/29 10:15:46;;;;;;;;;;;;;;;;;;5037517;28;19950;-70
2023/03/29 10:18:12;;;;;;;;;;;;;;;;;;5037472;28;19959;-68
2023/03/29 10:20:38;;;;;;;;;;;;;;;;;;5037124;28;19988;-70
2023/03/29 10:23:04;;;;;;;;;;;;;;;;;;5037131;28;20454;-69
2023/03/29 10:25:30;;;;;;;;;;;;;;;;;;5037220;28;20077;-70
2023/03/29 10:27:56;;;;;;;;;;;;;;;;;;5037032;28;19988;-70
2023/03/29 10:30:22;;;;;;;;;;;;;;;;;;5036936;28;19968;-70
2023/03/29 10:32:48;;;;;;;;;;;;;;;;;;5036918;28;19973;-68
2023/03/29 10:35:14;;;;;;;;;;;;;;;;;;5037182;28;19996;-69
2023/03/29 10:37:40;;;;;;;;;;;;;;;;;;5037115;28;20417;-70
2023/03/29 10:40:06;;;;;;;;;;;;;;;;;;5036804;28;20341;-69
2023/03/29 10:42:32;;;;;;;;;;;;;;;;;;5037048;28;19984;-68
2023/03/29 10:44:58;;;;;;;;;;;;;;;;;;5036586;28;20038;-70
2023/03/29 10:47:24;;;;;;;;;;;;;;;;;;5036633;28;20397;-69
2023/03/29 10:49:50;;;;;;;;;;;;;;;;;;5036902;28;19960;-70
2023/03/29 10:52:16;;;;;;;;;;;;;;;;;;5036590;28;19946;-70
2023/03/29 10:54:42;;;;;;;;;;;;;;;;;;5036799;28;19997;-71
2023/03/29 10:57:09;;;;;;;;;;;;;;;;;;5036460;28;19950;-69
2023/03/29 10:59:35;;;;;;;;;;;;;;;;;;5037291;28;19998;-69
2023/03/29 11:02:00;;;;;;;;;;;;;;;;;;5036362;28;20397;-70
2023/03/29 11:04:27;;;;;;;;;;;;;;;;;;5035756;28;19960;-70
2023/03/29 11:06:53;;;;;;;;;;;;;;;;;;5036513;28;20012;-70
2023/03/29 11:09:18;;;;;;;;;;;;;;;;;;5036263;28;19948;-69
2023/03/29 11:11:44;;;;;;;;;;;;;;;;;;5036503;28;19948;-69
2023/03/29 11:14:12;;;;;;;;;;;;;;;;;;5036459;28;19960;-68
2023/03/29 11:16:38;;;;;;;;;;;;;;;;;;5036353;28;20348;-68
2023/03/29 11:19:04;;;;;;;;;;;;;;;;;;5036081;28;19997;-68
2023/03/29 11:21:30;;;;;;;;;;;;;;;;;;5035785;28;19994;-69
2023/03/29 11:23:56;;;;;;;;;;;;;;;;;;5035923;28;19956;-69
2023/03/29 11:26:22;;;;;;;;;;;;;;;;;;5036119;28;19980;-69
2023/03/29 11:28:48;;;;;;;;;;;;;;;;;;5036095;28;20343;-70
2023/03/29 11:31:13;;;;;;;;;;;;;;;;;;5036120;28;19951;-70
2023/03/29 11:33:39;;;;;;;;;;;;;;;;;;5036115;28;20033;-69
2023/03/29 11:36:05;;;;;;;;;;;;;;;;;;5035742;28;19955;-70
2023/03/29 11:38:32;;;;;;;;;;;;;;;;;;5035727;28;19957;-69
2023/03/29 11:40:58;;;;;;;;;;;;;;;;;;5035969;28;20053;-70
2023/03/29 11:43:24;;;;;;;;;;;;;;;;;;5035653;28;20437;-70
2023/03/29 11:45:51;;;;;;;;;;;;;;;;;;5035782;28;19980;-70
2023/03/29 11:48:17;;;;;;;;;;;;;;;;;;5035558;28;19953;-69
2023/03/29 11:50:43;;;;;;;;;;;;;;;;;;5035500;28;19987;-69
2023/03/29 11:53:10;;;;;;;;;;;;;;;;;;5035726;28;19946;-69
2023/03/29 11:55:36;;;;;;;;;;;;;;;;;;5035663;28;19956;-69
2023/03/29 11:58:02;;;;;;;;;;;;;;;;;;5035604;28;19955;-69
2023/03/29 12:00:28;;;;;;;;;;;;;;;;;;5035883;28;20317;-70
2023/03/29 12:02:54;;;;;;;;;;;;;;;;;;5035261;28;19962;-70
2023/03/29 12:05:21;;;;;;;;;;;;;;;;;;5035437;28;19971;-70
2023/03/29 12:07:47;;;;;;;;;;;;;;;;;;5033723;28;19954;-68
2023/03/29 12:10:13;;;;;;;;;;;;;;;;;;5035111;28;19962;-69
2023/03/29 12:12:39;;;;;;;;;;;;;;;;;;5035330;28;20013;-71
2023/03/29 12:15:05;;;;;;;;;;;;;;;;;;5034277;28;19950;-69
2023/03/29 12:17:31;;;;;;;;;;;;;;;;;;5034771;28;20003;-69
2023/03/29 12:19:57;;;;;;;;;;;;;;;;;;5034994;28;19953;-69
2023/03/29 12:22:23;;;;;;;;;;;;;;;;;;5035468;28;20463;-68
2023/03/29 12:24:49;;;;;;;;;;;;;;;;;;5034733;28;19957;-70
2023/03/29 12:27:18;;;;;;;;;;;;;;;;;;5034770;28;19955;-70
2023/03/29 12:29:44;;;;;;;;;;;;;;;;;;5034773;28;20348;-71
2023/03/29 12:32:11;;;;;;;;;;;;;;;;;;5035228;28;19954;-69
2023/03/29 12:34:36;;;;;;;;;;;;;;;;;;5034624;28;20057;-70
2023/03/29 12:37:02;;;;;;;;;;;;;;;;;;5034497;28;20396;-69
2023/03/29 12:39:29;;;;;;;;;;;;;;;;;;5034578;28;20003;-69
2023/03/29 12:41:55;;;;;;;;;;;;;;;;;;5035070;28;20045;-69
2023/03/29 12:44:21;;;;;;;;;;;;;;;;;;5034730;28;20429;-70
2023/03/29 12:46:47;;;;;;;;;;;;;;;;;;5034928;28;20016;-70
2023/03/29 12:49:13;;;;;;;;;;;;;;;;;;5034619;28;19983;-69
2023/03/29 12:51:39;;;;;;;;;;;;;;;;;;5034320;28;19975;-70
2023/03/29 12:54:07;;;;;;;;;;;;;;;;;;5034322;28;19958;-69
2023/03/29 12:56:32;;;;;;;;;;;;;;;;;;5034303;28;20029;-70
2023/03/29 12:58:58;;;;;;;;;;;;;;;;;;5034259;28;20419;-69
2023/03/29 13:01:25;;;;;;;;;;;;;;;;;;5034179;28;19957;-69
2023/03/29 13:03:51;;;;;;;;;;;;;;;;;;5034405;28;19952;-69
2023/03/29 13:06:17;;;;;;;;;;;;;;;;;;5034042;28;20027;-69
2023/03/29 13:08:43;;;;;;;;;;;;;;;;;;5034072;28;20051;-68
2023/03/29 13:11:09;;;;;;;;;;;;;;;;;;5034049;28;20405;-69
2023/03/29 13:13:35;;;;;;;;;;;;;;;;;;5034041;28;19951;-70
2023/03/29 13:16:01;;;;;;;;;;;;;;;;;;5034488;28;20433;-68
2023/03/29 13:18:27;;;;;;;;;;;;;;;;;;5033901;28;19955;-69
2023/03/29 13:20:53;;;;;;;;;;;;;;;;;;5033814;28;19988;-70
2023/03/29 13:23:19;;;;;;;;;;;;;;;;;;5033843;28;19947;-69
2023/03/29 13:25:45;;;;;;;;;;;;;;;;;;5034005;28;20473;-69
2023/03/29 13:28:11;;;;;;;;;;;;;;;;;;5033866;28;19952;-69
2023/03/29 13:30:37;;;;;;;;;;;;;;;;;;5033758;28;19968;-71
2023/03/29 13:33:04;;;;;;;;;;;;;;;;;;5033743;28;20018;-69
2023/03/29 13:35:30;;;;;;;;;;;;;;;;;;5033963;28;20435;-70
2023/03/29 13:37:56;;;;;;;;;;;;;;;;;;5033944;28;20378;-69
2023/03/29 13:40:22;;;;;;;;;;;;;;;;;;5033925;28;19950;-68
2023/03/29 13:42:48;;;;;;;;;;;;;;;;;;5033915;28;19952;-68
2023/03/29 13:45:14;;;;;;;;;;;;;;;;;;5034299;28;20472;-69
2023/03/29 13:47:40;;;;;;;;;;;;;;;;;;5033882;28;19997;-69
2023/03/29 13:50:06;;;;;;;;;;;;;;;;;;5034126;28;20034;-70
2023/03/29 13:52:32;;;;;;;;;;;;;;;;;;5033571;28;20040;-68
2023/03/29 13:54:58;;;;;;;;;;;;;;;;;;5034063;28;20326;-69
2023/03/29 13:57:25;;;;;;;;;;;;;;;;;;5033782;28;20031;-70
2023/03/29 13:59:51;;;;;;;;;;;;;;;;;;5034059;28;20000;-69
2023/03/29 14:02:17;;;;;;;;;;;;;;;;;;5033733;28;19953;-70
2023/03/29 14:04:42;;;;;;;;;;;;;;;;;;5034042;28;19955;-68
2023/03/29 14:07:09;;;;;;;;;;;;;;;;;;5033361;28;19976;-68
2023/03/29 14:09:35;;;;;;;;;;;;;;;;;;5033669;28;19951;-69
2023/03/29 14:12:01;;;;;;;;;;;;;;;;;;5033330;28;19952;-68
2023/03/29 14:14:27;;;;;;;;;;;;;;;;;;5033600;28;20464;-68
2023/03/29 14:16:53;;;;;;;;;;;;;;;;;;5033879;28;19954;-68
2023/03/29 14:19:18;;;;;;;;;;;;;;;;;;5033288;28;20043;-68
2023/03/29 14:21:45;;;;;;;;;;;;;;;;;;5032905;28;19988;-69
2023/03/29 14:24:13;;;;;;;;;;;;;;;;;;5033279;28;20043;-70
2023/03/29 14:26:39;;;;;;;;;;;;;;;;;;5033733;28;19979;-70
2023/03/29 14:29:06;;;;;;;;;;;;;;;;;;5033376;28;19971;-69
2023/03/29 14:31:31;;;;;;;;;;;;;;;;;;5033206;28;20417;-69
2023/03/29 14:33:57;;;;;;;;;;;;;;;;;;5033449;28;19955;-68
2023/03/29 14:36:26;;;;;;;;;;;;;;;;;;5033434;28;20005;-69
2023/03/29 14:38:52;;;;;;;;;;;;;;;;;;5034603;28;19963;-69
2023/03/29 14:41:18;;;;;;;;;;;;;;;;;;5036768;28;19955;-69
2023/03/29 14:43:44;;;;;;;;;;;;;;;;;;5036766;28;20326;-69
2023/03/29 14:46:10;;;;;;;;;;;;;;;;;;5036688;28;19969;-68
2023/03/29 14:48:36;;;;;;;;;;;;;;;;;;5037254;28;20392;-69
2023/03/29 14:51:02;;;;;;;;;;;;;;;;;;5036911;28;20002;-70
2023/03/29 14:53:30;;;;;;;;;;;;;;;;;;5036581;28;20013;-70
2023/03/29 14:55:56;;;;;;;;;;;;;;;;;;5037092;28;20071;-68
2023/03/29 14:58:22;;;;;;;;;;;;;;;;;;5036464;28;19982;-70
2023/03/29 15:00:49;;;;;;;;;;;;;;;;;;5036708;28;20463;-68
2023/03/29 15:03:15;;;;;;;;;;;;;;;;;;5036965;28;19975;-68
2023/03/29 15:05:41;;;;;;;;;;;;;;;;;;5036568;28;20057;-69
2023/03/29 15:08:09;;;;;;;;;;;;;;;;;;5036839;28;19952;-69
2023/03/29 15:10:35;;;;;;;;;;;;;;;;;;5036271;28;20005;-69
2023/03/29 15:13:01;;;;;;;;;;;;;;;;;;5036206;28;19956;-70
2023/03/29 15:15:26;;;;;;;;;;;;;;;;;;5036398;28;19953;-70
2023/03/29 15:17:52;;;;;;;;;;;;;;;;;;5036171;28;19951;-69
2023/03/29 15:20:20;;;;;;;;;;;;;;;;;;5036158;28;19990;-68
2023/03/29 15:22:46;;;;;;;;;;;;;;;;;;5036694;28;19956;-69
2023/03/29 15:25:12;;;;;;;;;;;;;;;;;;5035977;28;19950;-69
2023/03/29 15:27:38;;;;;;;;;;;;;;;;;;5036180;28;19965;-68
2023/03/29 15:30:04;;;;;;;;;;;;;;;;;;5035809;28;19975;-70
2023/03/29 15:32:30;;;;;;;;;;;;;;;;;;5036152;28;20035;-69
2023/03/29 15:34:56;;;;;;;;;;;;;;;;;;5036085;28;20408;-69
2023/03/29 15:37:22;;;;;;;;;;;;;;;;;;5036288;28;19948;-68
2023/03/29 15:39:48;;;;;;;;;;;;;;;;;;5035705;28;20326;-67
2023/03/29 15:42:14;;;;;;;;;;;;;;;;;;5035938;28;19951;-68
2023/03/29 15:44:40;;;;;;;;;;;;;;;;;;5035880;28;19958;-70
2023/03/29 15:47:06;;;;;;;;;;;;;;;;;;5036066;28;20402;-70
2023/03/29 15:49:32;;;;;;;;;;;;;;;;;;5035454;28;19948;-70
2023/03/29 15:51:58;;;;;;;;;;;;;;;;;;5035769;28;19956;-69
2023/03/29 15:54:24;;;;;;;;;;;;;;;;;;5035450;28;20047;-69
2023/03/29 15:56:50;;;;;;;;;;;;;;;;;;5035658;28;20436;-70
2023/03/29 15:59:16;;;;;;;;;;;;;;;;;;5035608;28;19950;-68
2023/03/29 16:01:42;;;;;;;;;;;;;;;;;;5035290;28;20407;-69
2023/03/29 16:04:08;;;;;;;;;;;;;;;;;;5035819;28;19955;-69
2023/03/29 16:06:34;;;;;;;;;;;;;;;;;;5035371;28;19976;-70
2023/03/29 16:09:00;;;;;;;;;;;;;;;;;;5035743;28;19951;-70
2023/03/29 16:11:27;;;;;;;;;;;;;;;;;;5035119;28;20332;-68
2023/03/29 16:13:53;;;;;;;;;;;;;;;;;;5035125;28;19956;-69
2023/03/29 16:16:18;;;;;;;;;;;;;;;;;;5035035;28;19961;-70
2023/03/29 16:18:44;;;;;;;;;;;;;;;;;;5035577;28;20393;-69
2023/03/29 16:21:10;;;;;;;;;;;;;;;;;;5034882;28;20018;-69
2023/03/29 16:23:36;;;;;;;;;;;;;;;;;;5034939;28;20358;-68
2023/03/29 16:26:02;;;;;;;;;;;;;;;;;;5035067;28;19972;-69
2023/03/29 16:28:28;;;;;;;;;;;;;;;;;;5034761;28;20014;-69
2023/03/29 16:30:54;;;;;;;;;;;;;;;;;;5034746;28;19960;-69
2023/03/29 16:33:20;;;;;;;;;;;;;;;;;;5034975;28;19950;-68
2023/03/29 16:35:46;;;;;;;;;;;;;;;;;;5034649;28;19954;-70
2023/03/29 16:38:12;;;;;;;;;;;;;;;;;;5034604;28;19948;-68
2023/03/29 16:40:38;;;;;;;;;;;;;;;;;;5033186;28;20338;-70